Time;durP1;ratioP1;P1;durP2;ratioP2;P2;SDS_P1;SDS_P2;PMS_P1;PMS_P2;Temp;Humidity;BMP_temperature;BMP_pressure;BME280_temperature;BME280_humidity;BME280_pressure;Samples;Min_cycle;Max_cycle;Signal;HPM_P1;HPM_P2
2023/08/15 00:02:02;;;;;;;;;;;25.00;54.20;;;;;;5094416;28;20368;-59
2023/08/15 00:04:31;;;;;;;;;;;25.00;54.30;;;;;;5094946;28;19977;-58
2023/08/15 00:06:58;;;;;;;;;;;25.00;54.30;;;;;;5095105;28;20018;-58
2023/08/15 00:09:25;;;;;;;;;;;25.00;54.30;;;;;;5094109;28;20344;-58
2023/08/15 00:11:52;;;;;;;;;;;25.00;54.30;;;;;;5093745;28;20016;-59
2023/08/15 00:14:19;;;;;;;;;;;25.00;54.30;;;;;;5094613;28;20014;-58
2023/08/15 00:16:47;;;;;;;;;;;25.00;54.30;;;;;;5094955;28;20031;-58
2023/08/15 00:19:14;;;;;;;;;;;25.00;54.30;;;;;;5094774;28;19980;-58
2023/08/15 00:21:43;;;;;;;;;;;25.00;54.60;;;;;;5094315;28;19939;-58
2023/08/15 00:24:10;;;;;;;;;;;25.00;54.30;;;;;;5094319;28;19931;-58
2023/08/15 00:26:37;;;;;;;;;;;25.00;54.30;;;;;;5107238;28;20323;-58
2023/08/15 00:29:04;;;;;;;;;;;25.00;54.40;;;;;;5114906;28;19927;-58
2023/08/15 00:31:31;;;;;;;;;;;24.90;54.30;;;;;;5112006;28;20014;-58
2023/08/15 00:33:58;;;;;;;;;;;25.00;54.40;;;;;;5094318;28;19930;-58
2023/08/15 00:36:25;;;;;;;;;;;25.00;54.40;;;;;;5093394;28;19959;-58
2023/08/15 00:38:52;;;;;;;;;;;25.00;54.40;;;;;;5094316;28;20371;-58
2023/08/15 00:41:20;;;;;;;;;;;24.90;54.30;;;;;;5094401;28;20014;-58
2023/08/15 00:43:47;;;;;;;;;;;25.00;54.60;;;;;;5094290;28;19928;-58
2023/08/15 00:46:14;;;;;;;;;;;24.90;54.30;;;;;;5092660;28;19975;-58
2023/08/15 00:48:41;;;;;;;;;;;25.00;54.40;;;;;;5105987;28;19977;-57
2023/08/15 00:51:08;;;;;;;;;;;24.90;54.40;;;;;;5114383;28;19923;-57
2023/08/15 00:53:36;;;;;;;;;;;24.90;54.40;;;;;;5085710;28;19931;-57
2023/08/15 00:56:03;;;;;;;;;;;24.90;54.40;;;;;;5080180;28;20007;-58
2023/08/15 00:58:30;;;;;;;;;;;24.90;54.40;;;;;;5093435;28;20293;-58
2023/08/15 01:00:57;;;;;;;;;;;24.90;54.40;;;;;;5093871;28;19979;-58
2023/08/15 01:03:24;;;;;;;;;;;24.90;54.40;;;;;;5093991;28;20344;-58
2023/08/15 01:05:52;;;;;;;;;;;24.90;54.40;;;;;;5093007;28;19967;-57
2023/08/15 01:08:19;;;;;;;;;;;24.90;54.40;;;;;;5093557;28;19975;-57
2023/08/15 01:10:46;;;;;;;;;;;24.90;54.40;;;;;;5094101;28;20042;-58
2023/08/15 01:13:19;;;;;;;;;;;24.90;54.40;;;;;;5092564;28;19971;-57
2023/08/15 01:15:49;;;;;;;;;;;24.90;54.40;;;;;;5093995;28;19932;-57
2023/08/15 01:18:28;;;;;;;;;;;24.90;54.40;;;;;;5093928;28;19930;-59
2023/08/15 01:20:56;;;;;;;;;;;24.90;54.40;;;;;;5093930;28;19924;-58
2023/08/15 01:23:37;;;;;;;;;;;24.90;54.40;;;;;;5093898;28;19924;-60
2023/08/15 01:26:04;;;;;;;;;;;24.90;54.40;;;;;;5093840;28;20015;-58
2023/08/15 01:28:32;;;;;;;;;;;24.90;54.30;;;;;;5093432;28;19924;-58
2023/08/15 01:31:02;;;;;;;;;;;24.90;54.30;;;;;;5093896;28;19930;-57
2023/08/15 01:33:39;;;;;;;;;;;24.90;54.30;;;;;;5093787;28;20014;-57
2023/08/15 01:36:13;;;;;;;;;;;24.90;54.30;;;;;;5108510;28;19924;-59
2023/08/15 01:38:45;;;;;;;;;;;24.90;54.30;;;;;;5114130;28;20322;-57
2023/08/15 01:41:14;;;;;;;;;;;24.90;54.20;;;;;;5113192;28;20403;-58
2023/08/15 01:43:42;;;;;;;;;;;24.90;54.20;;;;;;5113862;28;19993;-58
2023/08/15 01:46:10;;;;;;;;;;;24.90;54.20;;;;;;5106394;28;20341;-58
2023/08/15 01:48:38;;;;;;;;;;;24.90;54.20;;;;;;5093128;28;20035;-58
2023/08/15 01:51:05;;;;;;;;;;;24.90;54.20;;;;;;5092421;28;20015;-58
2023/08/15 01:53:32;;;;;;;;;;;24.90;54.20;;;;;;5093234;28;19959;-58
2023/08/15 01:55:59;;;;;;;;;;;25.00;54.20;;;;;;5092181;28;19986;-58
2023/08/15 01:58:26;;;;;;;;;;;25.00;54.20;;;;;;5092879;28;20433;-61
2023/08/15 02:00:53;;;;;;;;;;;24.90;54.20;;;;;;5093696;28;19950;-65
2023/08/15 02:03:20;;;;;;;;;;;24.90;54.20;;;;;;5093123;28;19924;-59
2023/08/15 02:05:47;;;;;;;;;;;24.90;54.20;;;;;;5095247;28;20402;-60
2023/08/15 02:08:14;;;;;;;;;;;24.90;54.20;;;;;;5112827;28;19944;-59
2023/08/15 02:10:41;;;;;;;;;;;24.90;54.20;;;;;;5114102;28;19970;-59
2023/08/15 02:13:08;;;;;;;;;;;24.90;54.20;;;;;;5096000;27;19924;-58
2023/08/15 02:15:35;;;;;;;;;;;24.90;54.30;;;;;;5096918;28;19997;-62
2023/08/15 02:18:02;;;;;;;;;;;24.90;54.30;;;;;;5114804;28;19931;-60
2023/08/15 02:20:29;;;;;;;;;;;24.90;54.30;;;;;;5117442;28;19990;-60
2023/08/15 02:22:56;;;;;;;;;;;24.90;54.30;;;;;;5103076;28;19930;-61
2023/08/15 02:25:23;;;;;;;;;;;24.90;54.30;;;;;;5096380;28;19975;-59
2023/08/15 02:27:50;;;;;;;;;;;24.90;54.30;;;;;;5096697;28;20015;-63
2023/08/15 02:30:17;;;;;;;;;;;24.90;54.30;;;;;;5094704;28;20448;-59
2023/08/15 02:32:44;;;;;;;;;;;24.90;54.40;;;;;;5095855;28;19972;-57
2023/08/15 02:35:13;;;;;;;;;;;24.90;54.40;;;;;;5095705;28;20321;-58
2023/08/15 02:37:40;;;;;;;;;;;24.90;54.40;;;;;;5100889;28;19924;-58
2023/08/15 02:40:09;;;;;;;;;;;24.90;54.40;;;;;;5116630;28;20333;-58
2023/08/15 02:42:36;;;;;;;;;;;24.90;54.40;;;;;;5114329;28;19924;-58
2023/08/15 02:45:03;;;;;;;;;;;24.80;54.30;;;;;;5096502;28;19924;-60
2023/08/15 02:47:31;;;;;;;;;;;24.80;54.40;;;;;;5109091;28;19977;-58
2023/08/15 02:49:58;;;;;;;;;;;24.80;54.30;;;;;;5116298;28;20287;-58
2023/08/15 02:52:25;;;;;;;;;;;24.90;54.40;;;;;;5115193;28;20442;-58
2023/08/15 02:54:52;;;;;;;;;;;24.80;54.30;;;;;;5100511;28;20014;-58
2023/08/15 02:57:19;;;;;;;;;;;24.80;54.40;;;;;;5096022;28;19924;-59
2023/08/15 02:59:47;;;;;;;;;;;24.80;54.40;;;;;;5096336;28;19924;-58
2023/08/15 03:02:15;;;;;;;;;;;24.80;54.40;;;;;;5096477;28;19924;-58
2023/08/15 03:04:42;;;;;;;;;;;24.80;54.40;;;;;;5095805;28;20027;-58
2023/08/15 03:07:09;;;;;;;;;;;24.80;54.40;;;;;;5095793;28;19924;-58
2023/08/15 03:09:36;;;;;;;;;;;24.80;54.40;;;;;;5108900;28;19924;-58
2023/08/15 03:12:06;;;;;;;;;;;24.80;54.40;;;;;;5115698;28;20339;-57
2023/08/15 03:14:33;;;;;;;;;;;24.80;54.40;;;;;;5112825;28;20335;-58
2023/08/15 03:17:01;;;;;;;;;;;24.80;54.40;;;;;;5095645;28;20456;-58
2023/08/15 03:19:28;;;;;;;;;;;24.80;54.40;;;;;;5095539;28;20350;-57
2023/08/15 03:21:55;;;;;;;;;;;24.80;54.40;;;;;;5095090;28;20425;-58
2023/08/15 03:24:22;;;;;;;;;;;24.80;54.40;;;;;;5095972;28;20334;-58
2023/08/15 03:26:49;;;;;;;;;;;24.80;54.40;;;;;;5095183;28;20380;-58
2023/08/15 03:29:16;;;;;;;;;;;24.80;54.40;;;;;;5095699;28;20014;-58
2023/08/15 03:31:43;;;;;;;;;;;24.80;54.40;;;;;;5095010;28;20379;-58
2023/08/15 03:34:10;;;;;;;;;;;24.80;54.40;;;;;;5095902;28;19978;-58
2023/08/15 03:36:38;;;;;;;;;;;24.80;54.40;;;;;;5093921;28;20291;-58
2023/08/15 03:39:05;;;;;;;;;;;24.80;54.40;;;;;;5095579;28;19964;-58
2023/08/15 03:41:32;;;;;;;;;;;24.80;54.30;;;;;;5095614;28;19928;-58
2023/08/15 03:43:59;;;;;;;;;;;24.80;54.30;;;;;;5095428;28;19924;-58
2023/08/15 03:46:26;;;;;;;;;;;24.90;54.40;;;;;;5094921;28;20374;-61
2023/08/15 03:48:53;;;;;;;;;;;24.80;54.30;;;;;;5115711;28;19928;-58
2023/08/15 03:51:20;;;;;;;;;;;24.80;54.30;;;;;;5113588;28;20340;-58
2023/08/15 03:54:08;;;;;;;;;;;24.80;54.20;;;;;;5095038;28;20022;-58
2023/08/15 03:56:35;;;;;;;;;;;24.90;54.20;;;;;;5094910;28;19931;-58
2023/08/15 03:59:02;;;;;;;;;;;24.90;54.20;;;;;;5094809;28;20015;-58
2023/08/15 04:01:30;;;;;;;;;;;24.90;54.20;;;;;;5094885;28;19924;-59
2023/08/15 04:03:57;;;;;;;;;;;24.90;54.20;;;;;;5074395;28;20402;-58
2023/08/15 04:06:24;;;;;;;;;;;24.90;54.70;;;;;;5083059;28;19971;-58
2023/08/15 04:08:50;;;;;;;;;;;24.90;54.10;;;;;;5113881;28;19930;-59
2023/08/15 04:11:19;;;;;;;;;;;24.90;54.10;;;;;;5115292;28;19923;-58
2023/08/15 04:13:46;;;;;;;;;;;24.90;54.10;;;;;;5114959;28;19928;-58
2023/08/15 04:16:14;;;;;;;;;;;24.90;54.00;;;;;;5099622;28;19977;-58
2023/08/15 04:18:41;;;;;;;;;;;24.90;54.00;;;;;;5094631;28;19939;-58
2023/08/15 04:21:10;;;;;;;;;;;24.90;53.90;;;;;;5087468;28;19924;-58
2023/08/15 04:23:37;;;;;;;;;;;24.90;53.90;;;;;;5084678;28;19924;-59
2023/08/15 04:26:04;;;;;;;;;;;24.90;53.90;;;;;;5084463;28;20016;-58
2023/08/15 04:28:31;;;;;;;;;;;24.90;53.90;;;;;;5084619;28;20269;-58
2023/08/15 04:30:58;;;;;;;;;;;24.90;53.90;;;;;;5083511;28;19925;-58
2023/08/15 04:33:25;;;;;;;;;;;25.00;53.90;;;;;;5084112;28;19939;-58
2023/08/15 04:35:52;;;;;;;;;;;25.00;53.80;;;;;;5083806;28;19947;-58
2023/08/15 04:38:20;;;;;;;;;;;24.90;53.90;;;;;;5083905;28;19932;-58
2023/08/15 04:40:47;;;;;;;;;;;24.90;54.00;;;;;;5084185;28;20010;-58
2023/08/15 04:43:14;;;;;;;;;;;24.70;54.20;;;;;;5084988;28;20448;-58
2023/08/15 04:45:43;;;;;;;;;;;24.50;55.00;;;;;;5077664;28;19960;-58
2023/08/15 04:48:12;;;;;;;;;;;24.30;54.60;;;;;;5085160;28;19924;-58
2023/08/15 04:50:39;;;;;;;;;;;24.10;53.40;;;;;;5113548;28;19938;-58
2023/08/15 04:53:06;;;;;;;;;;;23.80;52.20;;;;;;5114237;28;19935;-58
2023/08/15 04:55:34;;;;;;;;;;;23.50;51.30;;;;;;5109377;28;19932;-57
2023/08/15 04:58:01;;;;;;;;;;;23.20;50.70;;;;;;5093979;28;20310;-58
2023/08/15 05:00:29;;;;;;;;;;;22.90;49.90;;;;;;5093198;28;20391;-58
2023/08/15 05:03:00;;;;;;;;;;;22.60;49.80;;;;;;5102644;28;19930;-58
2023/08/15 05:05:27;;;;;;;;;;;22.30;49.60;;;;;;5099050;28;19924;-58
2023/08/15 05:07:54;;;;;;;;;;;22.00;49.60;;;;;;5093653;28;19924;-59
2023/08/15 05:10:22;;;;;;;;;;;21.70;48.80;;;;;;5084187;28;20400;-59
2023/08/15 05:12:49;;;;;;;;;;;21.50;50.40;;;;;;5083475;28;19963;-59
2023/08/15 05:15:16;;;;;;;;;;;21.30;49.50;;;;;;5080156;28;19936;-58
2023/08/15 05:17:44;;;;;;;;;;;21.00;49.40;;;;;;5075071;28;19925;-59
2023/08/15 05:20:12;;;;;;;;;;;20.80;50.70;;;;;;5087571;28;19925;-59
2023/08/15 05:22:39;;;;;;;;;;;20.60;51.50;;;;;;5078507;28;20398;-58
2023/08/15 05:25:07;;;;;;;;;;;20.50;51.30;;;;;;5091414;28;19932;-58
2023/08/15 05:27:34;;;;;;;;;;;20.40;51.90;;;;;;5077791;28;19985;-58
2023/08/15 05:30:01;;;;;;;;;;;20.20;52.00;;;;;;5080892;28;20014;-58
2023/08/15 05:32:28;;;;;;;;;;;20.20;52.50;;;;;;5080788;28;19932;-58
2023/08/15 05:34:55;;;;;;;;;;;20.10;51.90;;;;;;5071361;28;19928;-58
2023/08/15 05:37:22;;;;;;;;;;;20.00;52.60;;;;;;5071526;28;19985;-58
2023/08/15 05:39:49;;;;;;;;;;;19.90;52.80;;;;;;5072398;28;19964;-58
2023/08/15 05:42:19;;;;;;;;;;;19.80;53.00;;;;;;5073873;28;20222;-56
2023/08/15 05:44:46;;;;;;;;;;;19.80;53.40;;;;;;5075709;28;19943;-58
2023/08/15 05:47:13;;;;;;;;;;;19.70;54.40;;;;;;5074552;28;19936;-58
2023/08/15 05:49:41;;;;;;;;;;;19.70;54.90;;;;;;5076134;28;19935;-58
2023/08/15 05:52:08;;;;;;;;;;;19.70;55.30;;;;;;5078318;28;20015;-59
2023/08/15 05:54:35;;;;;;;;;;;19.70;54.70;;;;;;5077765;28;19970;-59
2023/08/15 05:57:02;;;;;;;;;;;19.70;55.00;;;;;;5077200;28;19925;-59
2023/08/15 05:59:29;;;;;;;;;;;19.70;55.20;;;;;;5081003;28;20404;-60
2023/08/15 06:01:57;;;;;;;;;;;19.60;55.10;;;;;;5081692;28;19933;-60
2023/08/15 06:04:24;;;;;;;;;;;19.70;55.00;;;;;;5075036;28;19924;-60
2023/08/15 06:06:51;;;;;;;;;;;19.60;55.30;;;;;;5071250;28;20007;-60
2023/08/15 06:09:18;;;;;;;;;;;19.70;54.90;;;;;;5079781;28;20121;-60
2023/08/15 06:11:45;;;;;;;;;;;19.60;55.50;;;;;;5076152;28;19927;-60
2023/08/15 06:14:12;;;;;;;;;;;19.60;55.30;;;;;;5077015;28;20443;-60
2023/08/15 06:16:39;;;;;;;;;;;19.60;55.30;;;;;;5081420;28;19928;-60
2023/08/15 06:19:06;;;;;;;;;;;19.50;55.30;;;;;;5072634;28;19932;-60
2023/08/15 06:21:33;;;;;;;;;;;19.50;55.30;;;;;;5074383;28;19938;-60
2023/08/15 06:24:01;;;;;;;;;;;19.50;55.70;;;;;;5076314;28;20358;-60
2023/08/15 06:26:28;;;;;;;;;;;19.50;55.50;;;;;;5070405;28;19985;-59
2023/08/15 06:28:55;;;;;;;;;;;19.50;55.60;;;;;;5074355;28;19932;-60
2023/08/15 06:31:22;;;;;;;;;;;19.40;55.40;;;;;;5076056;28;19932;-59
2023/08/15 06:33:50;;;;;;;;;;;19.40;55.60;;;;;;5077958;28;19928;-59
2023/08/15 06:36:17;;;;;;;;;;;19.40;56.10;;;;;;5077437;28;20019;-59
2023/08/15 06:38:44;;;;;;;;;;;19.40;56.10;;;;;;5077146;28;19924;-60
2023/08/15 06:41:11;;;;;;;;;;;19.40;56.10;;;;;;5074944;28;19932;-58
2023/08/15 06:43:38;;;;;;;;;;;19.40;56.30;;;;;;5080311;28;19924;-58
2023/08/15 06:46:05;;;;;;;;;;;19.40;56.50;;;;;;5077400;28;19928;-59
2023/08/15 06:48:32;;;;;;;;;;;19.40;56.30;;;;;;5076968;28;19987;-59
2023/08/15 06:51:00;;;;;;;;;;;19.50;56.90;;;;;;5073304;28;19946;-59
2023/08/15 06:53:28;;;;;;;;;;;19.50;56.90;;;;;;5072505;28;19986;-60
2023/08/15 06:55:55;;;;;;;;;;;19.40;59.60;;;;;;5078200;28;20014;-60
2023/08/15 06:58:22;;;;;;;;;;;19.40;60.00;;;;;;5075767;28;20373;-60
2023/08/15 07:00:49;;;;;;;;;;;19.30;60.20;;;;;;5073471;28;20006;-61
2023/08/15 07:03:18;;;;;;;;;;;19.30;59.20;;;;;;5077767;28;20316;-59
2023/08/15 07:05:45;;;;;;;;;;;19.30;60.20;;;;;;5072856;28;20353;-58
2023/08/15 07:08:13;;;;;;;;;;;19.20;60.70;;;;;;5071759;28;19928;-57
2023/08/15 07:10:40;;;;;;;;;;;19.20;58.20;;;;;;5073789;28;19980;-58
2023/08/15 07:13:07;;;;;;;;;;;19.20;59.40;;;;;;5071361;28;20003;-57
2023/08/15 07:15:34;;;;;;;;;;;19.20;58.00;;;;;;5078037;28;20437;-57
2023/08/15 07:18:01;;;;;;;;;;;19.20;57.90;;;;;;5075934;28;19933;-61
2023/08/15 07:20:29;;;;;;;;;;;19.20;58.40;;;;;;5083058;28;20364;-60
2023/08/15 07:23:00;;;;;;;;;;;19.30;57.90;;;;;;5079667;28;20299;-59
2023/08/15 07:25:27;;;;;;;;;;;19.30;59.60;;;;;;5077230;28;19925;-59
2023/08/15 07:27:54;;;;;;;;;;;19.30;58.80;;;;;;5082754;28;19970;-58
2023/08/15 07:30:21;;;;;;;;;;;19.40;58.20;;;;;;5084495;28;20387;-57
2023/08/15 07:32:48;;;;;;;;;;;19.40;59.20;;;;;;5077992;28;19951;-58
2023/08/15 07:35:15;;;;;;;;;;;19.40;58.00;;;;;;5081248;28;19935;-58
2023/08/15 07:37:42;;;;;;;;;;;19.40;58.60;;;;;;5082006;28;20009;-57
2023/08/15 07:40:18;;;;;;;;;;;19.40;59.20;;;;;;5079054;28;19931;-59
2023/08/15 07:42:46;;;;;;;;;;;19.50;58.50;;;;;;5079832;28;19960;-59
2023/08/15 07:45:13;;;;;;;;;;;19.50;58.70;;;;;;5078516;28;19928;-59
2023/08/15 07:47:39;;;;;;;;;;;19.50;59.80;;;;;;5077498;28;20002;-60
2023/08/15 07:50:14;;;;;;;;;;;19.50;58.90;;;;;;5076930;28;19931;-59
2023/08/15 07:52:41;;;;;;;;;;;19.60;60.00;;;;;;5089081;28;20384;-59
2023/08/15 07:55:09;;;;;;;;;;;19.60;61.30;;;;;;5080838;28;19968;-59
2023/08/15 07:57:36;;;;;;;;;;;19.60;59.00;;;;;;5078087;28;19975;-59
2023/08/15 08:00:04;;;;;;;;;;;19.70;61.00;;;;;;5081020;28;20010;-59
2023/08/15 08:02:31;;;;;;;;;;;19.70;61.40;;;;;;5078801;28;19971;-60
2023/08/15 08:04:58;;;;;;;;;;;19.80;61.30;;;;;;5074346;28;20025;-59
2023/08/15 08:07:25;;;;;;;;;;;19.80;59.70;;;;;;5085219;28;20116;-59
2023/08/15 08:09:52;;;;;;;;;;;19.80;61.30;;;;;;5081555;28;20018;-58
2023/08/15 08:12:21;;;;;;;;;;;19.90;60.20;;;;;;5082311;28;19986;-57
2023/08/15 08:14:49;;;;;;;;;;;19.90;59.50;;;;;;5079358;28;19924;-59
2023/08/15 08:17:23;;;;;;;;;;;19.90;60.60;;;;;;5083327;28;19932;-58
2023/08/15 08:19:51;;;;;;;;;;;20.00;60.40;;;;;;5077345;28;19977;-57
2023/08/15 08:22:18;;;;;;;;;;;20.00;59.80;;;;;;5080258;28;19959;-59
2023/08/15 08:24:48;;;;;;;;;;;20.00;60.00;;;;;;5077602;28;19929;-58
2023/08/15 08:27:15;;;;;;;;;;;20.10;59.80;;;;;;5078198;28;19936;-58
2023/08/15 08:29:42;;;;;;;;;;;20.10;60.80;;;;;;5072829;28;19936;-57
2023/08/15 08:32:09;;;;;;;;;;;20.20;60.00;;;;;;5070848;28;19928;-56
2023/08/15 08:34:36;;;;;;;;;;;20.20;60.40;;;;;;5074783;28;19924;-58
2023/08/15 08:37:03;;;;;;;;;;;20.30;60.60;;;;;;5072580;28;20011;-58
2023/08/15 08:39:30;;;;;;;;;;;20.30;60.00;;;;;;5074296;28;19975;-58
2023/08/15 08:41:59;;;;;;;;;;;20.30;60.40;;;;;;5072622;28;19932;-57
2023/08/15 08:44:29;;;;;;;;;;;20.40;60.90;;;;;;5087179;28;20007;-56
2023/08/15 08:46:58;;;;;;;;;;;20.40;59.90;;;;;;5072138;28;20347;-57
2023/08/15 08:49:26;;;;;;;;;;;20.40;59.90;;;;;;5083574;28;20288;-58
2023/08/15 08:51:55;;;;;;;;;;;20.40;59.70;;;;;;5080570;28;19928;-56
2023/08/15 08:54:22;;;;;;;;;;;20.50;60.80;;;;;;5070130;28;19933;-56
2023/08/15 08:57:10;;;;;;;;;;;20.50;59.50;;;;;;5074079;28;19925;-55
2023/08/15 08:59:39;;;;;;;;;;;20.50;59.60;;;;;;5079191;28;19928;-57
2023/08/15 09:02:09;;;;;;;;;;;20.60;59.70;;;;;;5079861;28;20314;-57
2023/08/15 09:04:36;;;;;;;;;;;20.60;60.10;;;;;;5077545;28;20292;-56
2023/08/15 09:07:03;;;;;;;;;;;20.60;59.90;;;;;;5076801;28;19931;-57
2023/08/15 09:09:30;;;;;;;;;;;20.60;58.50;;;;;;5079658;28;20312;-58
2023/08/15 09:11:57;;;;;;;;;;;20.60;59.70;;;;;;5081873;28;20402;-58
2023/08/15 09:14:24;;;;;;;;;;;20.60;58.30;;;;;;5079853;28;19928;-59
2023/08/15 09:16:51;;;;;;;;;;;20.60;59.90;;;;;;5079192;28;19930;-59
2023/08/15 09:19:18;;;;;;;;;;;20.60;59.70;;;;;;5075983;28;20771;-59
2023/08/15 09:21:45;;;;;;;;;;;20.60;59.60;;;;;;5074819;28;20438;-58
2023/08/15 09:24:12;;;;;;;;;;;20.60;59.10;;;;;;5072199;28;20549;-57
2023/08/15 09:26:39;;;;;;;;;;;20.60;59.90;;;;;;5073465;28;20035;-58
2023/08/15 09:29:06;;;;;;;;;;;20.70;60.00;;;;;;5076281;28;19932;-59
2023/08/15 09:31:34;;;;;;;;;;;20.70;59.50;;;;;;5073832;28;20016;-60
2023/08/15 09:34:08;;;;;;;;;;;20.70;58.80;;;;;;5071299;28;19924;-59
2023/08/15 09:36:35;;;;;;;;;;;20.70;58.90;;;;;;5076676;28;19966;-59
2023/08/15 09:39:06;;;;;;;;;;;20.70;58.70;;;;;;5076478;28;20039;-57
2023/08/15 09:41:33;;;;;;;;;;;20.70;58.70;;;;;;5078272;28;19923;-56
2023/08/15 09:44:00;;;;;;;;;;;20.80;59.20;;;;;;5075268;28;19924;-56
2023/08/15 09:46:27;;;;;;;;;;;20.80;59.50;;;;;;5072960;28;20011;-56
2023/08/15 09:48:54;;;;;;;;;;;20.80;59.40;;;;;;5070172;28;20450;-58
2023/08/15 09:51:21;;;;;;;;;;;20.80;59.10;;;;;;5071649;28;20015;-56
2023/08/15 09:53:49;;;;;;;;;;;20.80;58.80;;;;;;5078479;28;19928;-56
2023/08/15 09:56:17;;;;;;;;;;;20.90;59.20;;;;;;5082315;28;19972;-58
2023/08/15 09:58:45;;;;;;;;;;;20.90;58.40;;;;;;5078678;28;19925;-58
2023/08/15 10:01:14;;;;;;;;;;;20.90;58.20;;;;;;5078813;28;19932;-58
2023/08/15 10:03:41;;;;;;;;;;;20.90;57.80;;;;;;5081806;28;19932;-58
2023/08/15 10:06:09;;;;;;;;;;;20.90;57.90;;;;;;5079480;28;19960;-58
2023/08/15 10:08:40;;;;;;;;;;;20.90;57.70;;;;;;5082124;28;19924;-58
2023/08/15 10:11:09;;;;;;;;;;;20.90;57.30;;;;;;5077732;28;19924;-58
2023/08/15 10:13:37;;;;;;;;;;;20.90;57.40;;;;;;5074695;28;20376;-58
2023/08/15 10:16:12;;;;;;;;;;;20.90;58.60;;;;;;5074078;28;19933;-58
2023/08/15 10:18:50;;;;;;;;;;;20.90;57.60;;;;;;5077538;28;20015;-58
2023/08/15 10:21:17;;;;;;;;;;;20.90;58.50;;;;;;5076633;28;19931;-57
2023/08/15 10:23:44;;;;;;;;;;;20.90;59.40;;;;;;5078875;28;19928;-58
2023/08/15 10:26:11;;;;;;;;;;;20.80;57.10;;;;;;5071857;28;19946;-60
2023/08/15 10:28:39;;;;;;;;;;;20.90;58.80;;;;;;5072682;28;20019;-58
2023/08/15 10:31:08;;;;;;;;;;;20.80;56.80;;;;;;5066678;28;19925;-58
2023/08/15 10:33:35;;;;;;;;;;;20.80;57.50;;;;;;5075056;28;19931;-59
2023/08/15 10:36:05;;;;;;;;;;;20.70;55.70;;;;;;5074089;28;20023;-59
2023/08/15 10:38:40;;;;;;;;;;;20.70;55.90;;;;;;5081981;28;19928;-58
2023/08/15 10:41:15;;;;;;;;;;;20.70;57.70;;;;;;5076416;28;19931;-57
2023/08/15 10:43:49;;;;;;;;;;;20.60;56.00;;;;;;5079546;28;19924;-60
2023/08/15 10:46:26;;;;;;;;;;;20.60;56.80;;;;;;5079528;28;19983;-59
2023/08/15 10:48:55;;;;;;;;;;;20.50;57.10;;;;;;5075800;28;20372;-60
2023/08/15 10:51:34;;;;;;;;;;;20.50;58.30;;;;;;5088675;28;19981;-59
2023/08/15 10:54:03;;;;;;;;;;;20.50;58.00;;;;;;5081411;28;20030;-59
2023/08/15 10:56:35;;;;;;;;;;;20.40;57.90;;;;;;5077025;28;19935;-59
2023/08/15 10:59:13;;;;;;;;;;;20.40;57.50;;;;;;5075698;28;20081;-60
2023/08/15 11:01:41;;;;;;;;;;;20.40;58.60;;;;;;5077244;28;19924;-60
2023/08/15 11:04:10;;;;;;;;;;;20.40;57.30;;;;;;5080542;28;19946;-60
2023/08/15 11:06:41;;;;;;;;;;;20.40;58.30;;;;;;5072797;28;20361;-61
2023/08/15 11:09:10;;;;;;;;;;;20.30;58.40;;;;;;5077430;28;19935;-59
2023/08/15 11:11:38;;;;;;;;;;;20.40;56.90;;;;;;5070531;28;19925;-59
2023/08/15 11:14:13;;;;;;;;;;;20.40;57.80;;;;;;5079890;28;19925;-55
2023/08/15 11:16:41;;;;;;;;;;;20.40;57.90;;;;;;5073222;28;19968;-56
2023/08/15 11:19:09;;;;;;;;;;;20.40;57.90;;;;;;5076407;28;19975;-58
2023/08/15 11:21:36;;;;;;;;;;;20.40;58.30;;;;;;5076595;28;19938;-59
2023/08/15 11:24:03;;;;;;;;;;;20.40;57.10;;;;;;5078942;28;20024;-59
2023/08/15 11:26:31;;;;;;;;;;;20.40;58.30;;;;;;5074232;28;19956;-58
2023/08/15 11:28:59;;;;;;;;;;;20.40;58.40;;;;;;5085894;28;19977;-58
2023/08/15 11:31:28;;;;;;;;;;;20.40;58.30;;;;;;5075742;28;19968;-58
2023/08/15 11:33:55;;;;;;;;;;;20.40;58.00;;;;;;5079120;28;19924;-58
2023/08/15 11:36:22;;;;;;;;;;;20.50;57.00;;;;;;5078481;28;20338;-59
2023/08/15 11:38:49;;;;;;;;;;;20.50;58.90;;;;;;5079092;28;19936;-59
2023/08/15 11:41:16;;;;;;;;;;;20.50;58.30;;;;;;5072822;28;19977;-58
2023/08/15 11:43:44;;;;;;;;;;;20.50;57.30;;;;;;5076409;28;19981;-60
2023/08/15 11:46:11;;;;;;;;;;;20.50;58.70;;;;;;5086810;28;20387;-58
2023/08/15 11:48:38;;;;;;;;;;;20.60;58.40;;;;;;5079989;28;19932;-59
2023/08/15 11:51:05;;;;;;;;;;;20.60;58.00;;;;;;5076201;28;20472;-59
2023/08/15 11:53:33;;;;;;;;;;;20.60;57.50;;;;;;5075812;28;20322;-58
2023/08/15 11:56:00;;;;;;;;;;;20.70;58.40;;;;;;5078447;28;19935;-55
2023/08/15 11:58:28;;;;;;;;;;;20.70;58.00;;;;;;5074323;28;20026;-57
2023/08/15 12:00:56;;;;;;;;;;;20.70;58.70;;;;;;5080150;28;20395;-55
2023/08/15 12:03:26;;;;;;;;;;;20.70;57.70;;;;;;5075416;28;19931;-58
2023/08/15 12:05:55;;;;;;;;;;;20.80;57.60;;;;;;5075723;28;19932;-58
2023/08/15 12:08:25;;;;;;;;;;;20.80;56.70;;;;;;5074339;28;19957;-58
2023/08/15 12:10:53;;;;;;;;;;;20.80;57.90;;;;;;5080222;28;20054;-58
2023/08/15 12:13:34;;;;;;;;;;;20.80;57.20;;;;;;5080746;28;20264;-58
2023/08/15 12:16:01;;;;;;;;;;;20.80;57.10;;;;;;5074986;28;20019;-58
2023/08/15 12:18:29;;;;;;;;;;;20.80;56.80;;;;;;5078697;28;19924;-58
2023/08/15 12:20:56;;;;;;;;;;;20.80;58.00;;;;;;5076624;28;19924;-58
2023/08/15 12:23:23;;;;;;;;;;;20.80;57.80;;;;;;5077781;28;19935;-58
2023/08/15 12:25:54;;;;;;;;;;;20.80;57.00;;;;;;5074162;28;19935;-56
2023/08/15 12:28:22;;;;;;;;;;;20.80;58.10;;;;;;5075764;28;19927;-53
2023/08/15 12:30:49;;;;;;;;;;;20.90;58.10;;;;;;5076752;28;20023;-55
2023/08/15 12:33:16;;;;;;;;;;;20.80;56.70;;;;;;5075651;28;19931;-55
2023/08/15 12:36:03;;;;;;;;;;;20.80;56.80;;;;;;5074348;28;19943;-55
2023/08/15 12:38:30;;;;;;;;;;;20.80;57.40;;;;;;5076540;28;20009;-54
2023/08/15 12:40:57;;;;;;;;;;;20.90;57.80;;;;;;5076132;28;19924;-59
2023/08/15 12:43:24;;;;;;;;;;;20.90;57.50;;;;;;5080856;28;20100;-58
2023/08/15 12:45:52;;;;;;;;;;;20.90;58.00;;;;;;5077843;28;20333;-57
2023/08/15 12:48:19;;;;;;;;;;;20.90;57.70;;;;;;5076759;28;19932;-58
2023/08/15 12:50:46;;;;;;;;;;;20.90;57.20;;;;;;5075639;28;19928;-56
2023/08/15 12:53:13;;;;;;;;;;;20.90;57.20;;;;;;5079393;28;19933;-54
2023/08/15 12:55:40;;;;;;;;;;;20.90;57.70;;;;;;5073702;28;19924;-54
2023/08/15 12:58:08;;;;;;;;;;;20.90;57.60;;;;;;5077088;28;19933;-56
2023/08/15 13:00:36;;;;;;;;;;;20.90;57.70;;;;;;5075578;28;19955;-56
2023/08/15 13:03:04;;;;;;;;;;;20.90;57.50;;;;;;5080401;28;20425;-56
2023/08/15 13:05:31;;;;;;;;;;;20.90;58.30;;;;;;5072804;28;20446;-57
2023/08/15 13:07:58;;;;;;;;;;;20.90;58.50;;;;;;5076188;28;19924;-57
2023/08/15 13:10:26;;;;;;;;;;;20.90;58.10;;;;;;5076172;28;20361;-53
2023/08/15 13:12:53;;;;;;;;;;;20.90;56.80;;;;;;5076530;28;19947;-58
2023/08/15 13:15:20;;;;;;;;;;;20.90;58.10;;;;;;5076044;28;20407;-59
2023/08/15 13:17:47;;;;;;;;;;;21.00;57.90;;;;;;5076210;28;19973;-58
2023/08/15 13:20:14;;;;;;;;;;;21.00;58.00;;;;;;5071458;28;19928;-58
2023/08/15 13:22:41;;;;;;;;;;;21.00;58.40;;;;;;5083484;28;19924;-58
2023/08/15 13:25:08;;;;;;;;;;;21.00;58.90;;;;;;5079559;28;19928;-58
2023/08/15 13:27:35;;;;;;;;;;;21.10;58.30;;;;;;5073760;28;19938;-57
2023/08/15 13:30:02;;;;;;;;;;;21.00;58.70;;;;;;5074877;28;20009;-58
2023/08/15 13:32:30;;;;;;;;;;;21.10;58.40;;;;;;5072393;28;20005;-57
2023/08/15 13:34:57;;;;;;;;;;;21.10;58.90;;;;;;5079589;28;19939;-57
2023/08/15 13:37:24;;;;;;;;;;;21.10;58.30;;;;;;5073603;28;19974;-56
2023/08/15 13:39:53;;;;;;;;;;;21.10;58.50;;;;;;5083419;28;19924;-56
2023/08/15 13:42:20;;;;;;;;;;;21.10;59.30;;;;;;5074223;28;20307;-57
2023/08/15 13:45:03;;;;;;;;;;;21.10;57.60;;;;;;5073167;28;19925;-57
2023/08/15 13:47:34;;;;;;;;;;;21.20;58.70;;;;;;5074676;28;19925;-60
2023/08/15 13:50:01;;;;;;;;;;;21.20;58.50;;;;;;5075713;28;19931;-59
2023/08/15 13:52:28;;;;;;;;;;;21.20;59.30;;;;;;5074963;28;19979;-60
2023/08/15 13:54:55;;;;;;;;;;;21.20;58.40;;;;;;5071203;28;19964;-59
2023/08/15 13:57:25;;;;;;;;;;;21.30;58.70;;;;;;5072698;28;19932;-59
2023/08/15 13:59:54;;;;;;;;;;;21.30;58.70;;;;;;5073832;28;20311;-61
2023/08/15 14:02:21;;;;;;;;;;;21.40;58.90;;;;;;5072148;28;19962;-60
2023/08/15 14:04:48;;;;;;;;;;;21.40;61.50;;;;;;5080345;28;19931;-59
2023/08/15 14:07:15;;;;;;;;;;;21.60;69.50;;;;;;5075566;28;19971;-60
2023/08/15 14:09:42;;;;;;;;;;;21.90;73.90;;;;;;5085615;28;20381;-58
2023/08/15 14:12:09;;;;;;;;;;;22.20;74.70;;;;;;5076137;28;19924;-59
2023/08/15 14:14:36;;;;;;;;;;;22.60;75.00;;;;;;5086226;28;20285;-58
2023/08/15 14:17:05;;;;;;;;;;;22.80;74.70;;;;;;5083253;28;19932;-59
2023/08/15 14:19:33;;;;;;;;;;;23.10;74.30;;;;;;5083445;28;19925;-58
2023/08/15 14:22:00;;;;;;;;;;;23.40;74.00;;;;;;5081239;28;19938;-58